Time;durP1;ratioP1;P1;durP2;ratioP2;P2;SDS_P1;SDS_P2;PMS_P1;PMS_P2;Temp;Humidity;BMP_temperature;BMP_pressure;BME280_temperature;BME280_humidity;BME280_pressure;Samples;Min_cycle;Max_cycle;Signal;HPM_P1;HPM_P2
2022/12/23 00:00:39;;;;;;;5.20;2.80;;;;;;;5.55;90.57;95811.21;105441;1296;22538;-89
2022/12/23 00:03:27;;;;;;;4.10;2.40;;;;;;;5.55;90.45;95801.44;105400;1282;22515;-88
2022/12/23 00:05:58;;;;;;;2.70;1.80;;;;;;;5.55;90.33;95805.95;105355;1304;24742;-88
2022/12/23 00:08:31;;;;;;;3.30;1.80;;;;;;;5.57;90.20;95805.42;105486;1304;22471;-89
2022/12/23 00:11:04;;;;;;;3.00;1.80;;;;;;;5.59;90.19;95809.05;105493;1289;22532;-88
2022/12/23 00:16:24;;;;;;;3.00;1.80;;;;;;;5.58;89.76;95818.04;105396;1295;23905;-88
2022/12/23 00:18:56;;;;;;;3.40;1.70;;;;;;;5.59;89.76;95810.77;105483;1304;24465;-89
2022/12/23 00:21:29;;;;;;;3.20;2.20;;;;;;;5.58;89.66;95810.94;105510;1304;22529;-89
2022/12/23 00:24:02;;;;;;;2.40;1.80;;;;;;;5.54;89.68;95812.42;105492;1303;22495;-89
2022/12/23 00:26:33;;;;;;;2.20;1.50;;;;;;;5.56;89.74;95811.58;105439;1288;24607;-88
2022/12/23 00:29:04;;;;;;;1.90;1.50;;;;;;;5.58;89.37;95811.67;105449;1282;22576;-88
2022/12/23 00:31:36;;;;;;;1.50;1.10;;;;;;;5.61;89.27;95820.70;105494;1304;22481;-89
2022/12/23 00:34:09;;;;;;;1.90;1.40;;;;;;;5.58;89.13;95818.30;105464;1298;22473;-89
2022/12/23 00:36:41;;;;;;;4.30;1.70;;;;;;;5.56;89.15;95805.11;105476;1284;22514;-88
2022/12/23 00:44:51;;;;;;;2.20;1.50;;;;;;;5.62;88.20;95805.52;105450;1297;24465;-88
2022/12/23 00:50:13;;;;;;;2.90;1.70;;;;;;;5.58;88.05;95820.09;105472;1306;22558;-88
2022/12/23 00:52:44;;;;;;;1.80;1.20;;;;;;;5.56;88.05;95814.95;105471;1284;22473;-89
2022/12/23 00:55:16;;;;;;;2.20;1.20;;;;;;;5.56;87.92;95805.90;105449;1304;22509;-88
2022/12/23 00:57:47;;;;;;;3.50;2.10;;;;;;;5.53;87.90;95813.01;105380;1297;94106;-89
2022/12/23 01:05:35;;;;;;;1.90;1.30;;;;;;;5.53;87.88;95806.02;105465;1303;22511;-88
2022/12/23 01:06:20;;;;;;;2.20;1.30;;;;;;;5.56;87.89;95832.40;105004;1296;60362;-90
2022/12/23 01:08:51;;;;;;;1.30;0.90;;;;;;;5.54;87.83;95832.14;105093;1309;22679;-90
2022/12/23 01:11:22;;;;;;;2.00;1.20;;;;;;;5.53;87.81;95842.30;105312;1280;22567;-90
2022/12/23 01:13:53;;;;;;;1.40;0.90;;;;;;;5.50;88.14;95839.83;105493;1304;24420;-89
2022/12/23 01:16:24;;;;;;;1.60;1.40;;;;;;;5.44;88.42;95849.60;105419;1288;22526;-89
2022/12/23 01:18:55;;;;;;;2.10;1.30;;;;;;;5.36;89.06;95845.88;105525;1304;22511;-89
2022/12/23 01:21:26;;;;;;;1.30;0.90;;;;;;;5.28;90.04;95843.46;105453;1304;23288;-88
2022/12/23 01:23:57;;;;;;;1.80;1.10;;;;;;;5.20;91.05;95832.79;105439;1291;23943;-88
2022/12/23 01:26:31;;;;;;;2.20;1.20;;;;;;;5.14;91.90;95852.80;105389;1304;56082;-86
2022/12/23 01:29:02;;;;;;;1.90;1.30;;;;;;;5.06;92.47;95853.53;105462;1292;25348;-88
2022/12/23 01:31:33;;;;;;;1.80;1.20;;;;;;;5.00;93.14;95853.64;105430;1301;22466;-87
2022/12/23 01:34:07;;;;;;;2.10;1.10;;;;;;;4.93;93.79;95846.91;105460;1302;22472;-87
2022/12/23 01:36:38;;;;;;;2.80;1.40;;;;;;;4.89;94.34;95848.77;105420;1304;22912;-87
2022/12/23 01:39:11;;;;;;;2.80;1.40;;;;;;;4.84;95.07;95850.35;105390;1304;25342;-86
2022/12/23 01:45:05;;;;;;;3.70;1.50;;;;;;;4.72;95.97;95853.05;105468;1304;22484;-86
2022/12/23 01:47:40;;;;;;;1.20;1.10;;;;;;;4.69;96.47;95852.16;105134;1308;22514;-87
2022/12/23 01:50:15;;;;;;;2.70;1.30;;;;;;;4.68;97.02;95854.94;105187;1284;22774;-87
2022/12/23 01:52:50;;;;;;;2.80;1.50;;;;;;;4.63;97.33;95860.11;105307;1285;23155;-87
2022/12/23 01:55:25;;;;;;;2.30;1.20;;;;;;;4.58;97.60;95858.73;105451;1290;22464;-87
2022/12/23 01:58:00;;;;;;;2.60;1.70;;;;;;;4.55;98.14;95859.26;105582;1281;93862;-88
2022/12/23 02:09:18;;;;;;;1.50;1.20;;;;;;;4.57;98.77;95875.08;105481;1304;22507;-88
2022/12/23 02:12:34;;;;;;;2.60;1.10;;;;;;;4.56;99.04;95875.59;105427;1291;22492;-89
2022/12/23 02:18:27;;;;;;;1.50;1.00;;;;;;;4.56;99.37;95883.57;105436;1296;22469;-88
2022/12/23 02:21:32;;;;;;;2.70;1.10;;;;;;;4.59;99.65;95881.27;105448;1287;22937;-88
2022/12/23 02:24:33;;;;;;;1.90;0.90;;;;;;;4.61;99.79;95883.31;105480;1283;24244;-87
2022/12/23 02:27:26;;;;;;;0.90;0.60;;;;;;;4.66;99.92;95883.50;105418;1286;33696;-87
2022/12/23 02:30:26;;;;;;;3.10;1.20;;;;;;;4.67;99.97;95880.45;105464;1296;22481;-88
2022/12/23 02:33:18;;;;;;;2.60;1.20;;;;;;;4.65;99.98;95885.02;105477;1290;25378;-88
2022/12/23 02:35:57;;;;;;;2.10;1.10;;;;;;;4.64;99.99;95886.05;105378;1281;85206;-88
2022/12/23 02:38:34;;;;;;;3.30;1.50;;;;;;;4.61;99.99;95885.10;105429;1304;22543;-88
2022/12/23 02:41:12;;;;;;;2.10;0.90;;;;;;;4.60;100.00;95885.89;105446;1306;22563;-88
2022/12/23 02:43:49;;;;;;;1.70;1.30;;;;;;;4.59;100.00;95881.05;105460;1304;22600;-88
2022/12/23 02:46:27;;;;;;;1.90;1.30;;;;;;;4.57;99.91;95876.95;105354;1306;48372;-88
2022/12/23 02:49:06;;;;;;;2.20;1.50;;;;;;;4.52;99.72;95877.56;105476;1297;22473;-87
2022/12/23 02:51:42;;;;;;;1.60;1.10;;;;;;;4.48;99.72;95877.86;105461;1291;24309;-88
2022/12/23 02:54:17;;;;;;;3.10;1.50;;;;;;;4.44;99.53;95876.86;105489;1291;22687;-88
2022/12/23 02:56:52;;;;;;;1.60;1.20;;;;;;;4.43;99.45;95873.70;105407;1282;23293;-88
2022/12/23 02:59:26;;;;;;;2.20;1.40;;;;;;;4.40;99.13;95876.23;105512;1304;22507;-88
2022/12/23 03:01:58;;;;;;;2.50;1.20;;;;;;;4.35;99.18;95871.10;105452;1281;23172;-87
2022/12/23 03:04:29;;;;;;;1.60;1.10;;;;;;;4.29;99.22;95872.39;105452;1306;22471;-88
2022/12/23 03:07:05;;;;;;;1.30;1.00;;;;;;;4.26;99.57;95879.30;105423;1293;22521;-88
2022/12/23 03:09:44;;;;;;;2.20;1.60;;;;;;;4.23;99.79;95879.14;105473;1304;22507;-88
2022/12/23 03:12:28;;;;;;;2.40;1.40;;;;;;;4.24;99.95;95878.41;105503;1304;23282;-88
2022/12/23 03:15:16;;;;;;;1.70;1.10;;;;;;;4.26;99.92;95882.19;105434;1306;25342;-88
2022/12/23 03:18:01;;;;;;;2.50;1.40;;;;;;;4.27;99.85;95880.09;105445;1304;22469;-88
2022/12/23 03:20:41;;;;;;;2.60;1.80;;;;;;;4.25;99.50;95884.34;105458;1304;22469;-88
2022/12/23 03:23:24;;;;;;;1.50;1.20;;;;;;;4.21;99.52;95884.25;105475;1301;22467;-88
2022/12/23 03:26:02;;;;;;;1.70;1.20;;;;;;;4.20;99.32;95886.02;105353;1304;69843;-88
2022/12/23 03:28:39;;;;;;;2.50;1.40;;;;;;;4.20;99.46;95885.09;105459;1304;25462;-88
2022/12/23 03:31:19;;;;;;;3.50;2.10;;;;;;;4.22;99.90;95883.20;105480;1304;22572;-88
2022/12/23 03:33:54;;;;;;;3.10;1.80;;;;;;;4.22;99.99;95886.21;105439;1288;22481;-88
2022/12/23 03:36:28;;;;;;;1.70;1.40;;;;;;;4.22;99.98;95896.17;105471;1297;22462;-87
2022/12/23 03:39:03;;;;;;;2.00;1.50;;;;;;;4.19;99.84;95897.63;105498;1296;22510;-88
2022/12/23 03:41:40;;;;;;;1.30;1.10;;;;;;;4.16;99.66;95897.88;105461;1304;22481;-87
2022/12/23 03:44:18;;;;;;;2.20;1.70;;;;;;;4.12;99.69;95904.27;105484;1297;22474;-88
2022/12/23 03:46:55;;;;;;;2.50;1.50;;;;;;;4.09;99.62;95910.38;105361;1305;69509;-87
2022/12/23 03:49:31;;;;;;;2.00;1.40;;;;;;;4.09;99.80;95911.70;105471;1292;22487;-87
2022/12/23 03:52:07;;;;;;;1.50;1.30;;;;;;;4.09;99.86;95912.39;105467;1304;24288;-88
2022/12/23 03:54:44;;;;;;;2.70;1.40;;;;;;;4.07;99.67;95908.48;105481;1288;24276;-87
2022/12/23 03:57:16;;;;;;;2.10;1.30;;;;;;;4.04;99.63;95909.61;105383;1297;51759;-87
2022/12/23 03:59:50;;;;;;;1.50;1.30;;;;;;;4.04;99.39;95911.96;105464;1296;25395;-88
2022/12/23 04:02:32;;;;;;;1.60;1.00;;;;;;;4.04;99.39;95909.40;105442;1288;22464;-88
2022/12/23 04:05:17;;;;;;;1.70;1.40;;;;;;;4.04;99.24;95918.21;105445;1281;24432;-89
2022/12/23 04:07:51;;;;;;;2.20;1.30;;;;;;;4.06;99.12;95911.09;105437;1303;25361;-88
2022/12/23 04:10:24;;;;;;;1.90;1.50;;;;;;;4.08;99.07;95911.63;105645;1304;22540;-88
2022/12/23 04:12:58;;;;;;;2.30;1.60;;;;;;;4.10;99.18;95906.05;105625;1282;22438;-88
2022/12/23 04:15:30;;;;;;;1.60;1.00;;;;;;;4.12;99.08;95905.48;105610;1297;42326;-88
2022/12/23 04:18:01;;;;;;;2.50;1.70;;;;;;;4.15;98.94;95905.33;105460;1303;22501;-88
2022/12/23 04:20:32;;;;;;;2.10;1.30;;;;;;;4.14;98.71;95905.48;105478;1304;22499;-87
2022/12/23 04:23:05;;;;;;;1.40;1.20;;;;;;;4.12;98.55;95906.73;105448;1304;22482;-87
2022/12/23 04:25:35;;;;;;;1.30;1.20;;;;;;;4.09;98.44;95899.90;105452;1298;23150;-88
2022/12/23 04:28:06;;;;;;;2.70;1.20;;;;;;;4.09;98.24;95895.55;105438;1304;25558;-87
2022/12/23 04:30:38;;;;;;;2.60;1.20;;;;;;;4.07;98.14;95894.36;105431;1304;22515;-88
2022/12/23 04:33:13;;;;;;;1.40;0.90;;;;;;;4.08;98.19;95893.75;105390;1306;22514;-87
2022/12/23 04:35:44;;;;;;;1.20;1.00;;;;;;;4.12;98.33;95896.61;105397;1297;25260;-87
2022/12/23 04:38:16;;;;;;;1.80;1.40;;;;;;;4.19;98.29;95892.48;105486;1303;23688;-88
2022/12/23 04:40:48;;;;;;;3.10;1.50;;;;;;;4.22;98.07;95899.42;105544;1297;24327;-87
2022/12/23 04:43:19;;;;;;;3.10;1.30;;;;;;;4.24;98.21;95892.89;105454;1292;22976;-89
2022/12/23 04:45:53;;;;;;;2.40;1.30;;;;;;;4.30;98.24;95892.91;105406;1297;38262;-88
2022/12/23 04:48:24;;;;;;;2.10;1.30;;;;;;;4.34;98.04;95895.48;105451;1304;22465;-87
2022/12/23 04:50:55;;;;;;;3.10;1.90;;;;;;;4.32;97.91;95893.80;105468;1297;23233;-87
2022/12/23 04:53:26;;;;;;;2.50;1.60;;;;;;;4.29;97.91;95896.42;105449;1304;22479;-86
2022/12/23 04:55:58;;;;;;;3.50;1.70;;;;;;;4.28;97.90;95889.07;105359;1304;25194;-87
2022/12/23 04:58:29;;;;;;;1.80;1.30;;;;;;;4.28;97.92;95879.36;105476;1304;22480;-88
2022/12/23 05:01:08;;;;;;;2.40;2.00;;;;;;;4.28;97.78;95885.72;104507;1304;1285776;-87
2022/12/23 05:03:40;;;;;;;1.50;1.30;;;;;;;4.28;97.60;95879.84;105476;1298;22490;-88
2022/12/23 05:06:11;;;;;;;2.80;1.20;;;;;;;4.26;97.52;95881.98;105339;1305;59895;-88
2022/12/23 05:08:42;;;;;;;1.90;1.70;;;;;;;4.22;97.48;95888.77;105471;1304;22470;-88
2022/12/23 05:11:13;;;;;;;3.00;1.80;;;;;;;4.17;97.46;95883.61;105484;1304;22494;-88
2022/12/23 05:13:45;;;;;;;3.00;1.60;;;;;;;4.13;97.51;95879.14;105513;1304;23762;-87
2022/12/23 05:16:16;;;;;;;26.50;9.70;;;;;;;4.11;97.58;95870.85;105436;1303;23339;-87
2022/12/23 05:18:47;;;;;;;5.20;2.40;;;;;;;4.11;97.70;95870.37;105456;1304;24446;-88
2022/12/23 05:21:18;;;;;;;3.10;2.30;;;;;;;4.13;97.65;95869.02;105459;1306;22482;-88
2022/12/23 05:23:50;;;;;;;8.20;3.60;;;;;;;4.12;97.55;95872.42;105505;1305;22454;-87
2022/12/23 05:26:22;;;;;;;7.30;2.90;;;;;;;4.08;97.44;95872.29;105348;1304;130851;-88
2022/12/23 05:28:54;;;;;;;5.30;2.70;;;;;;;4.04;97.38;95864.71;105442;1304;22599;-88
2022/12/23 05:31:25;;;;;;;17.20;4.90;;;;;;;4.01;97.34;95871.20;105485;1304;24308;-88
2022/12/23 05:33:58;;;;;;;3.80;2.00;;;;;;;4.00;97.44;95865.07;105441;1304;22490;-87
2022/12/23 05:36:29;;;;;;;8.00;3.70;;;;;;;4.04;97.56;95864.29;105397;1304;29110;-87
2022/12/23 05:39:00;;;;;;;4.10;2.50;;;;;;;4.05;97.59;95859.56;105481;1293;22480;-88
2022/12/23 05:41:31;;;;;;;19.10;6.90;;;;;;;4.01;97.27;95860.92;105406;1305;24582;-88
2022/12/23 05:44:02;;;;;;;3.60;2.40;;;;;;;3.97;97.26;95859.81;105459;1291;22512;-87
2022/12/23 05:46:33;;;;;;;3.40;1.90;;;;;;;3.98;97.35;95858.98;105412;1282;22452;-87
2022/12/23 05:49:05;;;;;;;3.00;2.00;;;;;;;3.95;97.28;95856.81;105496;1289;22474;-87
2022/12/23 05:51:36;;;;;;;9.80;3.90;;;;;;;3.94;97.51;95851.20;105462;1305;23186;-87
2022/12/23 05:54:07;;;;;;;2.80;1.90;;;;;;;3.92;97.39;95854.30;105479;1304;22618;-88
2022/12/23 05:56:41;;;;;;;29.30;18.10;;;;;;;3.88;97.33;95850.52;105318;1306;93984;-87
2022/12/23 05:59:12;;;;;;;11.20;7.10;;;;;;;3.83;97.21;95846.67;105487;1304;22495;-87
2022/12/23 06:01:44;;;;;;;6.00;3.90;;;;;;;3.80;97.14;95848.53;105485;1306;22488;-87
2022/12/23 06:04:15;;;;;;;3.20;2.40;;;;;;;3.74;97.05;95847.55;105463;1288;22504;-87
2022/12/23 06:06:46;;;;;;;3.40;2.20;;;;;;;3.75;97.29;95849.23;105457;1296;43527;-88
2022/12/23 06:09:17;;;;;;;2.80;1.90;;;;;;;3.79;97.54;95847.90;105500;1297;22469;-87
2022/12/23 06:11:48;;;;;;;2.80;1.90;;;;;;;3.83;97.63;95846.62;105483;1288;22479;-88
2022/12/23 06:14:19;;;;;;;2.50;1.50;;;;;;;3.85;97.61;95844.00;105513;1289;23329;-87
2022/12/23 06:16:50;;;;;;;3.00;2.30;;;;;;;3.85;97.57;95843.38;105361;1288;102607;-87
2022/12/23 06:19:24;;;;;;;5.20;3.40;;;;;;;3.83;97.40;95849.88;105479;1288;25217;-88
2022/12/23 06:21:55;;;;;;;3.80;2.80;;;;;;;3.80;97.31;95850.22;105478;1306;22468;-88
2022/12/23 06:24:26;;;;;;;3.40;2.10;;;;;;;3.82;97.61;95852.96;105466;1306;22520;-87
2022/12/23 06:26:57;;;;;;;2.20;1.80;;;;;;;3.91;97.87;95855.20;105442;1305;23268;-87
2022/12/23 06:29:28;;;;;;;2.90;2.30;;;;;;;3.99;97.91;95857.66;105460;1304;22505;-87
2022/12/23 06:31:59;;;;;;;2.60;1.90;;;;;;;4.04;97.92;95861.50;105458;1306;22505;-88
2022/12/23 06:34:30;;;;;;;2.40;1.30;;;;;;;4.12;98.00;95859.94;105460;1302;22483;-88
2022/12/23 06:37:02;;;;;;;2.80;1.60;;;;;;;4.20;98.03;95863.47;105451;1303;22782;-87
2022/12/23 06:39:34;;;;;;;2.50;1.60;;;;;;;4.26;97.75;95863.20;105455;1304;22514;-87
2022/12/23 06:42:05;;;;;;;2.40;1.70;;;;;;;4.32;97.64;95865.26;105446;1297;24309;-88
2022/12/23 06:44:37;;;;;;;2.90;1.70;;;;;;;4.33;97.51;95873.23;105448;1298;22543;-87
2022/12/23 06:47:09;;;;;;;3.00;2.00;;;;;;;4.35;97.38;95874.81;105446;1297;22551;-88
2022/12/23 06:49:40;;;;;;;2.50;1.80;;;;;;;4.35;97.22;95876.81;105462;1306;22503;-88
2022/12/23 06:52:13;;;;;;;2.50;1.80;;;;;;;4.36;97.16;95877.88;105480;1304;23393;-87
2022/12/23 06:54:44;;;;;;;2.20;2.00;;;;;;;4.37;97.02;95870.69;105474;1306;24372;-86
2022/12/23 06:57:16;;;;;;;2.50;1.70;;;;;;;4.38;97.05;95865.52;105435;1306;22498;-87
2022/12/23 06:59:47;;;;;;;1.60;1.30;;;;;;;4.41;96.99;95863.31;105466;1306;22482;-88
2022/12/23 07:02:18;;;;;;;3.60;2.10;;;;;;;4.42;97.05;95861.16;105477;1305;22465;-87
2022/12/23 07:04:49;;;;;;;3.50;1.90;;;;;;;4.45;97.07;95865.05;105448;1305;26956;-87
2022/12/23 07:07:20;;;;;;;3.10;2.00;;;;;;;4.48;96.90;95869.09;105446;1289;22470;-87
2022/12/23 07:09:52;;;;;;;4.60;2.60;;;;;;;4.50;96.87;95865.59;105443;1279;22510;-88
2022/12/23 07:12:23;;;;;;;3.00;1.70;;;;;;;4.51;96.70;95865.45;105474;1305;22501;-87
2022/12/23 07:14:54;;;;;;;3.50;2.40;;;;;;;4.53;96.68;95868.65;105425;1306;24293;-88
2022/12/23 07:17:25;;;;;;;3.10;2.10;;;;;;;4.54;96.62;95871.44;105375;1298;45874;-88
2022/12/23 07:20:00;;;;;;;4.60;2.80;;;;;;;4.56;96.75;95871.60;105425;1282;22474;-87
2022/12/23 07:22:33;;;;;;;4.00;2.70;;;;;;;4.56;96.56;95870.91;105488;1305;22501;-87
2022/12/23 07:25:05;;;;;;;3.60;2.90;;;;;;;4.57;96.61;95872.65;105451;1302;22503;-87
2022/12/23 07:27:36;;;;;;;4.00;2.70;;;;;;;4.60;96.60;95868.92;105559;1303;24253;-88
2022/12/23 07:30:10;;;;;;;4.50;2.30;;;;;;;4.64;96.65;95856.80;105662;1294;24519;-87
2022/12/23 07:32:41;;;;;;;3.30;2.30;;;;;;;4.67;96.72;95857.95;105492;1297;22541;-88
2022/12/23 07:35:13;;;;;;;2.70;1.90;;;;;;;4.70;96.60;95865.34;105479;1279;22481;-87
2022/12/23 07:37:45;;;;;;;2.60;2.20;;;;;;;4.72;96.52;95859.61;105427;1304;29626;-88
2022/12/23 07:40:17;;;;;;;3.50;2.20;;;;;;;4.74;96.41;95856.27;105479;1306;25425;-88
2022/12/23 07:42:50;;;;;;;1.00;0.60;;;;;;;4.80;96.67;95842.19;105465;1303;23526;-88
2022/12/23 07:45:21;;;;;;;1.00;0.90;;;;;;;5.13;97.39;95839.92;105449;1288;22483;-88
2022/12/23 07:47:55;;;;;;;0.70;0.70;;;;;;;5.53;96.99;95844.18;105450;1303;25457;-88
2022/12/23 07:50:27;;;;;;;1.20;1.00;;;;;;;5.79;96.10;95854.40;105441;1301;22466;-87
2022/12/23 07:53:03;;;;;;;1.50;0.90;;;;;;;5.87;95.61;95850.60;105492;1305;22467;-88
2022/12/23 07:55:35;;;;;;;1.80;1.30;;;;;;;5.88;95.15;95847.27;105425;1289;22481;-88
2022/12/23 07:58:07;;;;;;;1.40;0.80;;;;;;;5.89;94.69;95846.81;105443;1297;22476;-88
2022/12/23 08:00:38;;;;;;;1.80;1.20;;;;;;;5.88;94.01;95841.91;105466;1306;23027;-87
2022/12/23 08:03:10;;;;;;;1.30;1.10;;;;;;;5.86;93.52;95838.29;105472;1296;22462;-88
2022/12/23 08:05:44;;;;;;;1.40;0.90;;;;;;;5.84;93.42;95832.25;105432;1303;47028;-88
2022/12/23 08:08:15;;;;;;;1.40;1.10;;;;;;;5.84;93.15;95829.88;105547;1297;23816;-88
2022/12/23 08:10:47;;;;;;;1.50;0.90;;;;;;;5.83;92.97;95838.46;105660;1300;22450;-88
2022/12/23 08:13:19;;;;;;;1.80;1.30;;;;;;;5.84;92.83;95838.03;105641;1302;22935;-88
2022/12/23 08:15:53;;;;;;;2.10;1.40;;;;;;;5.86;92.39;95833.34;105620;1303;24652;-88
2022/12/23 08:18:25;;;;;;;1.80;1.10;;;;;;;5.85;92.12;95835.88;105447;1298;22503;-88
2022/12/23 08:20:59;;;;;;;1.70;1.10;;;;;;;5.80;91.91;95836.48;105463;1304;25287;-89
2022/12/23 08:23:33;;;;;;;2.10;1.50;;;;;;;5.76;91.75;95836.09;105490;1306;22512;-88
2022/12/23 08:26:07;;;;;;;1.80;1.50;;;;;;;5.74;91.58;95834.89;105429;1305;28505;-89
2022/12/23 08:28:42;;;;;;;2.60;1.20;;;;;;;5.74;91.72;95832.47;105562;1306;22469;-89
2022/12/23 08:31:15;;;;;;;2.10;1.70;;;;;;;5.78;91.68;95835.37;105567;1288;22466;-88
2022/12/23 08:33:49;;;;;;;1.90;1.30;;;;;;;5.87;91.57;95829.45;105553;1294;22510;-87
2022/12/23 08:36:22;;;;;;;1.40;1.10;;;;;;;5.94;91.24;95834.16;105477;1305;77694;-88
2022/12/23 08:38:55;;;;;;;3.70;1.30;;;;;;;6.02;91.08;95837.02;105508;1305;22507;-88
2022/12/23 08:41:28;;;;;;;1.60;1.10;;;;;;;6.11;90.75;95835.94;105521;1288;22682;-89
2022/12/23 08:43:59;;;;;;;1.50;0.90;;;;;;;6.18;90.77;95838.12;105422;1292;22516;-88
2022/12/23 08:46:31;;;;;;;0.90;0.90;;;;;;;6.29;89.90;95831.82;105412;1299;68649;-87
2022/12/23 08:49:03;;;;;;;2.90;1.80;;;;;;;6.40;89.55;95838.25;105478;1306;22485;-88
2022/12/23 08:51:36;;;;;;;2.10;1.40;;;;;;;6.42;89.28;95842.55;105468;1306;22444;-89
2022/12/23 08:54:09;;;;;;;1.70;1.00;;;;;;;6.43;89.19;95838.23;105495;1304;22542;-88
2022/12/23 08:56:42;;;;;;;1.60;1.00;;;;;;;6.43;89.08;95841.08;105362;1297;96270;-88
2022/12/23 08:59:16;;;;;;;2.50;1.50;;;;;;;6.40;88.93;95841.57;105503;1306;22471;-88
2022/12/23 09:01:48;;;;;;;1.40;1.00;;;;;;;6.41;89.19;95835.72;105417;1305;22481;-88
2022/12/23 09:04:22;;;;;;;2.10;1.30;;;;;;;6.40;88.93;95837.41;105468;1296;22492;-88
2022/12/23 09:06:53;;;;;;;2.70;1.60;;;;;;;6.36;89.08;95834.74;105405;1295;69204;-88
2022/12/23 09:09:24;;;;;;;2.60;1.40;;;;;;;6.31;89.15;95839.23;105854;1304;22508;-89
2022/12/23 09:11:55;;;;;;;2.40;1.50;;;;;;;6.27;89.71;95835.98;105662;1296;23972;-88
2022/12/23 09:14:27;;;;;;;2.40;1.20;;;;;;;6.19;90.13;95838.66;105547;1293;22487;-89
2022/12/23 09:16:59;;;;;;;3.20;1.70;;;;;;;6.13;90.27;95834.35;105413;1306;22570;-89
2022/12/23 09:19:30;;;;;;;2.10;1.70;;;;;;;6.10;90.42;95838.05;105481;1305;22554;-89
2022/12/23 09:22:01;;;;;;;2.10;1.60;;;;;;;6.10;90.74;95837.78;105453;1304;22470;-88
2022/12/23 09:24:33;;;;;;;3.10;2.20;;;;;;;6.14;90.79;95836.09;105483;1291;22485;-88
2022/12/23 09:27:04;;;;;;;3.50;2.10;;;;;;;6.17;91.03;95842.33;105443;1282;23339;-88
2022/12/23 09:29:38;;;;;;;2.40;1.80;;;;;;;6.18;90.63;95832.43;105474;1303;22507;-89
2022/12/23 09:32:09;;;;;;;2.50;1.70;;;;;;;6.24;90.89;95830.48;105462;1306;22460;-88
2022/12/23 09:34:41;;;;;;;3.80;1.80;;;;;;;6.32;91.40;95834.70;105457;1306;22967;-88
2022/12/23 09:37:15;;;;;;;3.70;2.60;;;;;;;6.43;91.22;95830.86;105461;1298;22999;-88
2022/12/23 09:39:46;;;;;;;3.00;2.10;;;;;;;6.56;91.23;95820.41;105447;1305;22485;-88
2022/12/23 09:42:34;;;;;;;1.80;1.50;;;;;;;6.66;91.27;95817.75;105478;1299;24442;-88
2022/12/23 09:45:17;;;;;;;4.20;2.40;;;;;;;6.73;90.81;95810.70;105391;1304;65553;-88
2022/12/23 09:47:48;;;;;;;4.90;2.80;;;;;;;6.82;90.76;95798.69;105456;1304;22910;-88
2022/12/23 09:50:27;;;;;;;4.80;2.90;;;;;;;6.89;90.74;95802.27;105442;1299;22476;-89
2022/12/23 09:53:04;;;;;;;4.20;2.40;;;;;;;6.95;90.36;95800.33;105476;1288;22469;-89
2022/12/23 09:55:47;;;;;;;4.10;2.60;;;;;;;6.98;90.06;95794.46;105421;1281;22520;-88
2022/12/23 09:58:29;;;;;;;4.70;2.60;;;;;;;7.04;90.11;95785.45;105470;1298;25386;-88
2022/12/23 10:01:12;;;;;;;4.10;2.40;;;;;;;7.09;89.87;95790.41;105467;1278;25536;-88
2022/12/23 10:04:09;;;;;;;3.60;2.40;;;;;;;7.11;89.43;95788.98;105475;1306;22464;-88
2022/12/23 10:06:44;;;;;;;3.10;2.20;;;;;;;7.08;89.20;95782.00;105373;1306;47050;-88
2022/12/23 10:09:17;;;;;;;3.60;2.40;;;;;;;7.06;89.40;95781.02;105469;1306;22554;-89
2022/12/23 10:11:50;;;;;;;3.20;2.20;;;;;;;7.09;89.55;95781.03;105523;1304;22501;-88
2022/12/23 10:14:28;;;;;;;4.40;2.70;;;;;;;7.09;89.18;95776.30;105490;1304;22475;-89
2022/12/23 10:17:05;;;;;;;4.60;2.50;;;;;;;7.10;89.12;95769.91;105394;1306;24262;-89
2022/12/23 10:19:42;;;;;;;4.80;2.80;;;;;;;7.06;88.95;95761.05;105437;1304;24446;-88
2022/12/23 10:22:23;;;;;;;5.60;3.00;;;;;;;7.02;88.98;95759.00;105566;1281;22510;-89
2022/12/23 10:24:57;;;;;;;5.60;3.50;;;;;;;6.99;89.01;95756.49;105646;1285;22483;-89
2022/12/23 10:27:32;;;;;;;6.60;4.00;;;;;;;6.97;88.82;95760.84;105724;1295;46872;-88
2022/12/23 10:30:08;;;;;;;7.30;4.50;;;;;;;6.94;89.00;95754.77;105576;1282;22576;-89
2022/12/23 10:32:50;;;;;;;7.30;4.60;;;;;;;6.89;88.75;95754.46;105636;1294;26689;-89
2022/12/23 10:35:38;;;;;;;7.30;3.80;;;;;;;6.84;88.77;95754.14;105613;1303;22510;-82
2022/12/23 10:38:22;;;;;;;8.80;4.20;;;;;;;6.85;89.10;95750.02;105672;1305;22475;-82
2022/12/23 10:41:00;;;;;;;5.60;3.30;;;;;;;6.95;89.06;95744.95;105587;1304;22531;-83
2022/12/23 10:43:39;;;;;;;5.80;3.80;;;;;;;7.00;88.80;95742.89;105677;1298;22493;-84
2022/12/23 10:46:22;;;;;;;7.50;4.20;;;;;;;7.02;88.55;95740.81;105768;1304;99652;-82
2022/12/23 10:49:03;;;;;;;7.00;4.30;;;;;;;6.98;88.56;95736.69;105481;1298;25458;-86
2022/12/23 10:51:36;;;;;;;;;;;;;;;6.96;88.69;95736.55;105516;1298;22505;-86
2022/12/23 10:54:14;;;;;;;6.20;3.50;;;;;;;6.94;88.66;95732.73;105482;1306;25474;-86
2022/12/23 10:56:45;;;;;;;6.10;3.80;;;;;;;6.89;88.50;95730.70;105428;1288;22488;-84
2022/12/23 10:59:21;;;;;;;6.30;3.40;;;;;;;6.87;88.60;95731.71;105535;1285;24282;-86
2022/12/23 11:02:01;;;;;;;6.10;3.90;;;;;;;6.86;88.79;95725.51;105562;1295;25374;-84
2022/12/23 11:04:36;;;;;;;5.30;3.40;;;;;;;6.87;88.93;95725.66;105480;1304;22516;-85
2022/12/23 11:07:12;;;;;;;4.60;2.90;;;;;;;6.88;89.07;95720.64;105439;1303;26374;-85
2022/12/23 11:09:47;;;;;;;4.80;2.70;;;;;;;6.91;89.14;95723.43;105514;1288;22496;-82
2022/12/23 11:12:24;;;;;;;5.80;3.20;;;;;;;6.96;88.88;95718.54;105486;1287;22467;-83
2022/12/23 11:14:57;;;;;;;5.00;3.10;;;;;;;6.97;88.73;95716.73;105429;1306;22501;-83
2022/12/23 11:17:32;;;;;;;5.00;3.40;;;;;;;6.94;88.43;95714.77;105533;1306;25383;-83
2022/12/23 11:20:16;;;;;;;6.70;3.80;;;;;;;6.90;88.51;95709.57;105429;1306;22469;-85
2022/12/23 11:22:53;;;;;;;5.20;3.20;;;;;;;6.89;88.65;95712.78;105479;1284;22510;-81
2022/12/23 11:25:32;;;;;;;4.30;2.50;;;;;;;6.90;88.63;95710.52;105490;1281;22511;-81
2022/12/23 11:28:08;;;;;;;6.20;2.60;;;;;;;6.92;88.63;95713.25;105397;1305;38304;-83
2022/12/23 11:30:55;;;;;;;5.80;3.50;;;;;;;6.90;88.54;95714.52;105513;1286;22624;-84
2022/12/23 11:33:29;;;;;;;5.50;2.80;;;;;;;6.89;88.59;95715.36;105455;1306;27649;-87
2022/12/23 11:36:15;;;;;;;5.30;3.00;;;;;;;6.88;88.67;95716.33;105434;1287;95748;-83
2022/12/23 11:39:04;;;;;;;5.40;3.30;;;;;;;6.87;88.57;95717.64;105585;1288;24290;-87
2022/12/23 11:41:43;;;;;;;5.30;3.00;;;;;;;6.88;88.62;95717.59;105713;1295;22513;-85
2022/12/23 11:44:24;;;;;;;6.50;3.10;;;;;;;6.89;88.52;95712.73;105572;1290;22482;-85
2022/12/23 11:46:57;;;;;;;6.80;3.70;;;;;;;6.92;88.43;95710.52;105458;1287;25357;-86
2022/12/23 11:49:33;;;;;;;5.90;3.50;;;;;;;6.93;88.32;95714.45;105532;1298;22474;-83
2022/12/23 11:52:17;;;;;;;5.80;3.50;;;;;;;6.95;88.45;95715.23;105498;1303;22500;-84
2022/12/23 11:54:54;;;;;;;5.10;3.30;;;;;;;6.96;88.52;95711.16;105431;1297;41801;-82
2022/12/23 11:57:38;;;;;;;2.80;1.30;;;;;;;6.98;88.58;95714.40;105447;1307;22486;-83
2022/12/23 12:00:22;;;;;;;3.10;1.60;;;;;;;7.09;88.81;95710.20;105480;1306;22524;-83
2022/12/23 12:02:56;;;;;;;2.90;1.70;;;;;;;7.21;88.76;95705.83;105480;1307;22464;-86
2022/12/23 12:05:35;;;;;;;3.80;1.20;;;;;;;7.31;88.40;95712.83;105466;1296;22473;-84
2022/12/23 12:08:10;;;;;;;3.20;1.50;;;;;;;7.39;88.17;95711.91;105583;1307;22487;-84
2022/12/23 12:10:42;;;;;;;2.20;1.10;;;;;;;7.46;87.80;95713.58;105590;1301;22461;-84
2022/12/23 12:13:28;;;;;;;2.20;1.10;;;;;;;7.52;87.30;95709.20;105730;1304;22573;-84
2022/12/23 12:16:13;;;;;;;1.00;0.70;;;;;;;7.57;86.65;95706.61;105635;1298;31055;-84
2022/12/23 12:18:48;;;;;;;2.10;0.80;;;;;;;7.60;86.09;95713.75;105466;1306;22482;-83
2022/12/23 12:21:24;;;;;;;3.00;1.60;;;;;;;7.60;86.38;95715.11;105576;1292;22469;-84
2022/12/23 12:23:59;;;;;;;3.40;1.30;;;;;;;7.60;86.53;95711.23;105672;1285;22546;-84
2022/12/23 12:26:40;;;;;;;2.50;1.40;;;;;;;7.61;86.29;95721.13;105580;1293;24301;-85
2022/12/23 12:29:21;;;;;;;1.60;0.80;;;;;;;7.62;86.40;95717.84;105533;1295;22496;-84
2022/12/23 12:31:57;;;;;;;2.70;1.60;;;;;;;7.68;85.75;95721.42;105551;1309;22508;-85
2022/12/23 12:34:38;;;;;;;3.00;1.50;;;;;;;7.72;86.03;95727.05;105453;1288;22489;-84
2022/12/23 12:37:20;;;;;;;3.30;1.60;;;;;;;7.75;85.66;95728.30;105390;1291;56593;-84
2022/12/23 12:39:56;;;;;;;4.20;1.50;;;;;;;7.77;85.48;95716.14;105426;1304;22576;-84